createdAt,value
2014-08-15T00:00:17.828Z,18.12
2014-08-15T00:01:22.517Z,18.22
2014-08-15T00:02:27.504Z,18.1
2014-08-15T00:03:32.178Z,18.02
2014-08-15T00:04:37.165Z,17.95
2014-08-15T00:05:41.854Z,17.92
2014-08-15T00:06:46.527Z,17.95
2014-08-15T00:07:51.218Z,18.02
2014-08-15T00:08:55.892Z,17.98
2014-08-15T00:10:00.580Z,18.11
2014-08-15T00:11:05.552Z,18.15
2014-08-15T00:12:10.241Z,18.13
2014-08-15T00:13:15.228Z,18.32
2014-08-15T00:14:20.199Z,18.36
2014-08-15T00:15:24.889Z,18.12
2014-08-15T00:16:28.891Z,18.29
2014-08-15T00:17:33.877Z,18.26
2014-08-15T00:18:38.550Z,18.32
2014-08-15T00:19:43.538Z,18.38
2014-08-15T00:20:48.524Z,18.11
2014-08-15T00:21:53.510Z,18.22
2014-08-15T00:22:58.183Z,18.2
2014-08-15T00:24:03.171Z,18.12
2014-08-15T00:25:07.845Z,18.09
2014-08-15T00:26:11.847Z,18.14
2014-08-15T00:27:16.817Z,18.16
2014-08-15T00:28:21.507Z,17.98
2014-08-15T00:29:26.493Z,18.08
2014-08-15T00:30:31.168Z,17.88
2014-08-15T00:31:35.857Z,17.98
2014-08-15T00:32:40.530Z,18.14
2014-08-15T00:33:45.518Z,18.22
2014-08-15T00:34:50.207Z,18.06
2014-08-15T00:35:54.896Z,18.07
2014-08-15T00:36:59.868Z,18.01
2014-08-15T00:38:04.557Z,18.01
2014-08-15T00:39:09.247Z,18
2014-08-15T00:40:14.217Z,18.08
2014-08-15T00:41:18.907Z,18.08
2014-08-15T00:42:23.581Z,18.04
2014-08-15T00:43:28.270Z,18.07
2014-08-15T00:44:33.242Z,17.96
2014-08-15T00:45:37.930Z,18.04
2014-08-15T00:46:42.621Z,17.99
2014-08-15T00:47:47.295Z,17.96
2014-08-15T00:48:51.983Z,17.99
2014-08-15T00:49:56.657Z,18.23
2014-08-15T00:51:01.348Z,18.06
2014-08-15T00:52:06.334Z,17.88
2014-08-15T00:53:11.617Z,17.8
2014-08-15T00:54:16.290Z,17.89
2014-08-15T00:55:21.278Z,17.75
2014-08-15T00:56:25.951Z,17.82
2014-08-15T00:57:30.641Z,17.85
2014-08-15T00:58:35.315Z,17.76
2014-08-15T00:59:40.004Z,17.86
2014-08-15T01:00:44.694Z,17.9
2014-08-15T01:01:49.368Z,18.1
2014-08-15T01:02:54.042Z,17.8
2014-08-15T01:03:59.029Z,17.79
2014-08-15T01:05:03.703Z,17.7
2014-08-15T01:06:08.391Z,17.89
2014-08-15T01:07:13.065Z,17.85
2014-08-15T01:08:17.756Z,17.82
2014-08-15T01:09:22.430Z,18
2014-08-15T01:10:27.416Z,17.99
2014-08-15T01:11:32.090Z,17.88
2014-08-15T01:12:36.779Z,17.8
2014-08-15T01:13:41.766Z,17.88
2014-08-15T01:14:46.440Z,17.94
2014-08-15T01:15:51.130Z,17.88
2014-08-15T01:16:56.116Z,18.03
2014-08-15T01:18:00.789Z,17.85
2014-08-15T01:19:05.480Z,17.75
2014-08-15T01:20:10.154Z,17.9
2014-08-15T01:21:14.842Z,17.84
2014-08-15T01:22:19.517Z,18
2014-08-15T01:23:24.503Z,17.88
2014-08-15T01:24:29.193Z,17.89
2014-08-15T01:25:33.867Z,17.92
2014-08-15T01:26:38.853Z,18
2014-08-15T01:27:43.824Z,17.92
2014-08-15T01:28:48.513Z,17.88
2014-08-15T01:29:53.500Z,17.96
2014-08-15T01:30:58.189Z,17.76
2014-08-15T01:32:02.863Z,17.82
2014-08-15T01:33:07.554Z,17.88
2014-08-15T01:34:12.242Z,17.68
2014-08-15T01:35:16.917Z,17.76
2014-08-15T01:36:21.607Z,17.82
2014-08-15T01:37:26.296Z,17.88
2014-08-15T01:38:30.986Z,17.78
2014-08-15T01:39:35.675Z,17.74
2014-08-15T01:40:40.349Z,17.78
2014-08-15T01:41:45.038Z,17.81
2014-08-15T01:42:49.712Z,17.72
2014-08-15T01:43:54.402Z,17.52
2014-08-15T01:44:59.388Z,17.6
2014-08-15T01:46:04.063Z,17.62
2014-08-15T01:47:08.752Z,17.54
2014-08-15T01:48:13.425Z,17.54
2014-08-15T01:49:18.116Z,17.43
2014-08-15T01:50:22.805Z,17.58
2014-08-15T01:51:27.478Z,17.5
2014-08-15T01:52:32.169Z,17.69
2014-08-15T01:53:36.843Z,17.6
2014-08-15T01:54:41.531Z,17.56
2014-08-15T01:55:46.222Z,17.42
2014-08-15T01:56:51.192Z,17.41
2014-08-15T01:57:56.179Z,17.44
2014-08-15T01:59:00.853Z,17.55
2014-08-15T02:00:05.542Z,17.5
2014-08-15T02:01:10.233Z,17.48
2014-08-15T02:02:14.906Z,17.48
2014-08-15T02:03:19.595Z,17.51
2014-08-15T02:04:24.270Z,17.42
2014-08-15T02:05:29.255Z,17.56
2014-08-15T02:06:34.243Z,17.53
2014-08-15T02:07:39.213Z,17.53
2014-08-15T02:08:43.903Z,17.47
2014-08-15T02:09:48.889Z,17.4
2014-08-15T02:10:53.563Z,17.49
2014-08-15T02:11:58.550Z,17.45
2014-08-15T02:13:03.520Z,17.42
2014-08-15T02:14:08.507Z,17.5
2014-08-15T02:15:13.494Z,17.52
2014-08-15T02:16:18.465Z,17.49
2014-08-15T02:17:23.153Z,17.63
2014-08-15T02:18:27.843Z,17.66
2014-08-15T02:19:32.518Z,17.62
2014-08-15T02:20:37.206Z,17.6
2014-08-15T02:21:42.178Z,17.44
2014-08-15T02:22:46.867Z,17.32
2014-08-15T02:23:51.557Z,17.59
2014-08-15T02:24:56.528Z,17.41
2014-08-15T02:26:01.217Z,17.41
2014-08-15T02:27:06.204Z,17.58
2014-08-15T02:28:10.877Z,17.54
2014-08-15T02:29:15.568Z,17.5
2014-08-15T02:30:20.553Z,17.45
2014-08-15T02:31:25.227Z,17.22
2014-08-15T02:32:29.918Z,17.24
2014-08-15T02:33:34.606Z,17.36
2014-08-15T02:34:39.297Z,17.29
2014-08-15T02:35:43.985Z,17.22
2014-08-15T02:36:48.676Z,17.18
2014-08-15T02:37:53.646Z,17.19
2014-08-15T02:38:58.336Z,17.39
2014-08-15T02:40:03.025Z,17.34
2014-08-15T02:41:07.996Z,17.46
2014-08-15T02:42:12.686Z,17.37
2014-08-15T02:43:17.375Z,17.4
2014-08-15T02:44:22.050Z,17.42
2014-08-15T02:45:27.035Z,17.42
2014-08-15T02:46:31.726Z,17.24
2014-08-15T02:47:36.415Z,17.38
2014-08-15T02:48:41.385Z,17.37
2014-08-15T02:49:46.076Z,17.54
2014-08-15T02:50:51.062Z,17.38
2014-08-15T02:51:55.736Z,17.22
2014-08-15T02:53:00.425Z,17.43
2014-08-15T02:54:05.115Z,17.48
2014-08-15T02:55:09.789Z,17.4
2014-08-15T02:56:14.775Z,17.46
2014-08-15T02:57:19.762Z,17.41
2014-08-15T02:58:24.435Z,17.47
2014-08-15T02:59:29.126Z,17.41
2014-08-15T03:00:33.814Z,17.37
2014-08-15T03:01:38.488Z,17.32
2014-08-15T03:02:43.476Z,17.46
2014-08-15T03:03:48.165Z,17.46
2014-08-15T03:04:52.855Z,17.52
2014-08-15T03:05:57.529Z,17.38
2014-08-15T03:07:02.515Z,17.33
2014-08-15T03:08:07.189Z,17.31
2014-08-15T03:09:11.878Z,17.3
2014-08-15T03:10:16.552Z,17.27
2014-08-15T03:11:21.539Z,17.16
2014-08-15T03:12:26.525Z,17.32
2014-08-15T03:13:31.199Z,17.35
2014-08-15T03:14:36.185Z,17.36
2014-08-15T03:15:40.875Z,17.3
2014-08-15T03:16:45.862Z,17.25
2014-08-15T03:17:50.536Z,17.1
2014-08-15T03:18:55.224Z,17.03
2014-08-15T03:19:59.915Z,17.1
2014-08-15T03:21:03.916Z,17.16
2014-08-15T03:22:08.591Z,17.08
2014-08-15T03:23:13.280Z,17.34
2014-08-15T03:24:18.267Z,17.31
2014-08-15T03:25:22.956Z,17.19
2014-08-15T03:26:27.927Z,17.4
2014-08-15T03:27:32.616Z,17.36
2014-08-15T03:28:37.603Z,17.34
2014-08-15T03:29:42.589Z,17.2
2014-08-15T03:30:47.294Z,17.28
2014-08-15T03:31:51.984Z,17.4
2014-08-15T03:32:56.659Z,17.51
2014-08-15T03:34:01.347Z,17.38
2014-08-15T03:35:06.053Z,17.32
2014-08-15T03:36:10.726Z,17.36
2014-08-15T03:37:15.714Z,17.46
2014-08-15T03:38:20.403Z,17.4
2014-08-15T03:39:25.077Z,17.49
2014-08-15T03:40:29.766Z,17.43
2014-08-15T03:41:34.456Z,17.35
2014-08-15T03:42:39.130Z,17.24
2014-08-15T03:43:43.819Z,17.39
2014-08-15T03:44:48.806Z,17.46
2014-08-15T03:45:53.495Z,17.6
2014-08-15T03:46:58.482Z,17.42
2014-08-15T03:48:03.172Z,17.3
2014-08-15T03:49:07.862Z,17.1
2014-08-15T03:50:12.848Z,17.22
2014-08-15T03:51:17.545Z,17.24
2014-08-15T03:52:22.277Z,17.2
2014-08-15T03:53:27.023Z,17.16
2014-08-15T03:54:32.036Z,17.25
2014-08-15T03:55:36.766Z,17.24
2014-08-15T03:56:41.780Z,17.12
2014-08-15T03:57:46.483Z,17.14
2014-08-15T03:58:51.173Z,17.23
2014-08-15T03:59:55.878Z,17.24
2014-08-15T04:01:00.582Z,17.48
2014-08-15T04:02:05.574Z,17.52
2014-08-15T04:03:10.253Z,17.32
2014-08-15T04:04:14.949Z,17.1
2014-08-15T04:05:19.643Z,17.26
2014-08-15T04:06:24.338Z,17.21
2014-08-15T04:07:29.014Z,17.33
2014-08-15T04:08:34.299Z,17.08
2014-08-15T04:09:38.990Z,17.1
2014-08-15T04:10:43.682Z,17.16
2014-08-15T04:11:48.654Z,17.39
2014-08-15T04:12:53.642Z,17.24
2014-08-15T04:13:58.332Z,17.24
2014-08-15T04:15:03.303Z,17.41
2014-08-15T04:16:07.994Z,17.45
2014-08-15T04:17:12.980Z,17.21
2014-08-15T04:18:17.670Z,17.36
2014-08-15T04:19:22.672Z,17.27
2014-08-15T04:20:27.361Z,17.34
2014-08-15T04:21:32.036Z,17.41
2014-08-15T04:22:36.725Z,17.25
2014-08-15T04:23:41.414Z,17.35
2014-08-15T04:24:46.401Z,17.48
2014-08-15T04:25:51.074Z,17.51
2014-08-15T04:26:56.062Z,17.54
2014-08-15T04:28:00.750Z,17.54
2014-08-15T04:29:05.441Z,17.31
2014-08-15T04:30:10.411Z,17.3
2014-08-15T04:31:15.101Z,17.51
2014-08-15T04:32:19.790Z,17.56
2014-08-15T04:33:24.761Z,17.39
2014-08-15T04:34:29.451Z,17.16
2014-08-15T04:35:34.438Z,17.25
2014-08-15T04:36:39.423Z,17.48
2014-08-15T04:37:44.410Z,17.49
2014-08-15T04:38:49.085Z,17.29
2014-08-15T04:39:53.773Z,17.32
2014-08-15T04:40:58.464Z,17.36
2014-08-15T04:42:03.152Z,17.41
2014-08-15T04:43:07.843Z,17.5
2014-08-15T04:44:12.829Z,17.26
2014-08-15T04:45:17.800Z,17.18
2014-08-15T04:46:22.489Z,17.26
2014-08-15T04:47:27.179Z,16.92
2014-08-15T04:48:32.165Z,17.06
2014-08-15T04:49:37.137Z,17.03
2014-08-15T04:50:42.122Z,17.23
2014-08-15T04:51:46.813Z,17.38
2014-08-15T04:52:51.501Z,17.16
2014-08-15T04:53:56.175Z,17.18
2014-08-15T04:55:00.866Z,17.16
2014-08-15T04:56:05.555Z,17.14
2014-08-15T04:57:10.229Z,17.37
2014-08-15T04:58:14.919Z,17.26
2014-08-15T04:59:19.608Z,17.45
2014-08-15T05:00:24.298Z,17.31
2014-08-15T05:01:28.987Z,17.37
2014-08-15T05:02:33.708Z,17.36
2014-08-15T05:03:38.382Z,17.14
2014-08-15T05:04:43.369Z,17.22
2014-08-15T05:05:48.059Z,17.32
2014-08-15T05:06:53.028Z,17.06
2014-08-15T05:07:57.718Z,17.04
2014-08-15T05:09:02.393Z,17.07
2014-08-15T05:10:07.082Z,17.09
2014-08-15T05:11:11.756Z,16.99
2014-08-15T05:12:16.742Z,17.06
2014-08-15T05:13:21.415Z,17.17
2014-08-15T05:14:26.106Z,16.86
2014-08-15T05:15:30.780Z,16.98
2014-08-15T05:16:35.469Z,17.05
2014-08-15T05:17:40.456Z,17.19
2014-08-15T05:18:45.129Z,17.16
2014-08-15T05:19:49.820Z,17.1
2014-08-15T05:20:54.493Z,17.2
2014-08-15T05:21:59.182Z,17.16
2014-08-15T05:23:03.856Z,17.13
2014-08-15T05:24:08.547Z,17.22
2014-08-15T05:25:13.221Z,17.06
2014-08-15T05:26:17.910Z,16.96
2014-08-15T05:27:22.584Z,17.07
2014-08-15T05:28:27.273Z,17.03
2014-08-15T05:29:31.947Z,17.12
2014-08-15T05:30:36.637Z,17
2014-08-15T05:31:41.608Z,16.9
2014-08-15T05:32:46.297Z,16.98
2014-08-15T05:33:51.268Z,17.12
2014-08-15T05:34:55.957Z,17.06
2014-08-15T05:36:00.631Z,17.08
2014-08-15T05:37:05.618Z,16.96
2014-08-15T05:38:10.605Z,17.05
2014-08-15T05:39:15.279Z,16.9
2014-08-15T05:40:19.968Z,16.95
2014-08-15T05:41:24.641Z,17
2014-08-15T05:42:29.332Z,16.9
2014-08-15T05:43:34.021Z,16.89
2014-08-15T05:44:38.695Z,17.04
2014-08-15T05:45:43.681Z,17.15
2014-08-15T05:46:48.371Z,16.98
2014-08-15T05:47:53.342Z,16.96
2014-08-15T05:48:58.031Z,17.02
2014-08-15T05:50:03.018Z,17.06
2014-08-15T05:51:07.691Z,16.94
2014-08-15T05:52:12.679Z,16.96
2014-08-15T05:53:17.664Z,16.91
2014-08-15T05:54:22.636Z,17.04
2014-08-15T05:55:27.324Z,16.81
2014-08-15T05:56:32.312Z,16.68
2014-08-15T05:57:37.000Z,16.83
2014-08-15T05:58:41.674Z,16.89
2014-08-15T05:59:46.365Z,16.67
2014-08-15T06:00:51.054Z,16.78
2014-08-15T06:01:55.729Z,16.96
2014-08-15T06:03:00.714Z,16.63
2014-08-15T06:04:05.388Z,16.83
2014-08-15T06:05:10.078Z,16.72
2014-08-15T06:06:14.767Z,16.77
2014-08-15T06:07:19.754Z,17.02
2014-08-15T06:08:24.428Z,17.03
2014-08-15T06:09:29.134Z,16.92
2014-08-15T06:10:33.822Z,17.01
2014-08-15T06:11:38.810Z,17
2014-08-15T06:12:43.483Z,16.75
2014-08-15T06:13:48.173Z,16.84
2014-08-15T06:14:53.144Z,16.87
2014-08-15T06:15:57.833Z,17.04
2014-08-15T06:17:02.524Z,16.95
2014-08-15T06:18:07.197Z,16.93
2014-08-15T06:19:11.886Z,16.92
2014-08-15T06:20:16.561Z,17.12
2014-08-15T06:21:21.249Z,17
2014-08-15T06:22:25.923Z,16.76
2014-08-15T06:23:30.613Z,17.08
2014-08-15T06:24:35.288Z,17.01
2014-08-15T06:25:39.977Z,17.18
2014-08-15T06:26:44.651Z,17.22
2014-08-15T06:27:49.341Z,17.22
2014-08-15T06:28:54.014Z,17.09
2014-08-15T06:29:58.704Z,17.15
2014-08-15T06:31:03.378Z,16.84
2014-08-15T06:32:08.067Z,17.06
2014-08-15T06:33:13.055Z,17.09
2014-08-15T06:34:18.024Z,17.29
2014-08-15T06:35:23.011Z,17.13
2014-08-15T06:36:27.685Z,17.24
2014-08-15T06:37:32.374Z,17.18
2014-08-15T06:38:37.049Z,17.05
2014-08-15T06:39:41.739Z,16.96
2014-08-15T06:40:46.708Z,17
2014-08-15T06:41:51.399Z,17.14
2014-08-15T06:42:56.073Z,17.11
2014-08-15T06:44:00.761Z,17.04
2014-08-15T06:45:05.452Z,17.02
2014-08-15T06:46:10.126Z,17
2014-08-15T06:47:15.112Z,16.96
2014-08-15T06:48:20.083Z,17.07
2014-08-15T06:49:25.070Z,17.02
2014-08-15T06:50:29.760Z,17.04
2014-08-15T06:51:34.432Z,17.23
2014-08-15T06:52:39.123Z,17.2
2014-08-15T06:53:43.797Z,17.04
2014-08-15T06:54:48.782Z,16.92
2014-08-15T06:55:53.457Z,17.11
2014-08-15T06:56:58.147Z,16.99
2014-08-15T06:58:03.133Z,16.87
2014-08-15T06:59:07.807Z,16.99
2014-08-15T07:00:12.512Z,17.07
2014-08-15T07:01:17.186Z,17.02
2014-08-15T07:02:21.875Z,17.16
2014-08-15T07:03:26.549Z,17.14
2014-08-15T07:04:31.239Z,17.33
2014-08-15T07:05:36.226Z,17.29
2014-08-15T07:06:40.916Z,17.24
2014-08-15T07:07:45.588Z,17.32
2014-08-15T07:08:50.575Z,17.18
2014-08-15T07:09:55.250Z,17.16
2014-08-15T07:10:59.938Z,16.95
2014-08-15T07:12:03.941Z,17.04
2014-08-15T07:13:08.912Z,17.01
2014-08-15T07:14:13.601Z,17.06
2014-08-15T07:15:18.275Z,17.06
2014-08-15T07:16:23.262Z,17.1
2014-08-15T07:17:27.951Z,17.12
2014-08-15T07:18:32.626Z,17.06
2014-08-15T07:19:37.315Z,17.04
2014-08-15T07:20:41.988Z,16.96
2014-08-15T07:21:46.679Z,16.88
2014-08-15T07:22:51.368Z,17.02
2014-08-15T07:23:56.041Z,17.1
2014-08-15T07:25:00.732Z,16.94
2014-08-15T07:26:05.406Z,17.13
2014-08-15T07:27:10.094Z,17.28
2014-08-15T07:28:14.785Z,17.2
2014-08-15T07:29:19.459Z,17.24
2014-08-15T07:30:24.445Z,17.05
2014-08-15T07:31:29.134Z,17.28
2014-08-15T07:32:33.808Z,17.18
2014-08-15T07:33:38.498Z,16.97
2014-08-15T07:34:43.187Z,16.82
2014-08-15T07:35:47.861Z,16.98
2014-08-15T07:36:52.848Z,17.08
2014-08-15T07:37:57.538Z,17.11
2014-08-15T07:39:02.212Z,17.19
2014-08-15T07:40:06.900Z,17.07
2014-08-15T07:41:11.590Z,17.12
2014-08-15T07:42:16.265Z,17.29
2014-08-15T07:43:20.953Z,17.32
2014-08-15T07:44:25.627Z,17.3
2014-08-15T07:45:30.318Z,17.4
2014-08-15T07:46:35.304Z,17.46
2014-08-15T07:47:39.994Z,17.69
2014-08-15T07:48:44.667Z,17.6
2014-08-15T07:49:49.358Z,17.64
2014-08-15T07:50:54.031Z,17.72
2014-08-15T07:51:59.017Z,17.8
2014-08-15T07:53:03.708Z,17.7
2014-08-15T07:54:08.381Z,17.8
2014-08-15T07:55:13.070Z,17.68
2014-08-15T07:56:17.776Z,17.8
2014-08-15T07:57:22.450Z,17.74
2014-08-15T07:58:27.436Z,17.86
2014-08-15T07:59:32.126Z,17.95
2014-08-15T08:00:36.815Z,17.85
2014-08-15T08:01:41.786Z,17.9
2014-08-15T08:02:46.476Z,17.89
2014-08-15T08:03:51.150Z,18
2014-08-15T08:04:55.840Z,18
2014-08-15T08:06:00.514Z,17.96
2014-08-15T08:07:05.499Z,17.98
2014-08-15T08:08:10.189Z,17.9
2014-08-15T08:09:14.864Z,17.76
2014-08-15T08:10:19.552Z,17.7
2014-08-15T08:11:24.227Z,17.84
2014-08-15T08:12:28.917Z,17.93
2014-08-15T08:13:33.606Z,17.94
2014-08-15T08:14:38.279Z,18.06
2014-08-15T08:15:42.969Z,18.16
2014-08-15T08:16:47.659Z,18.44
2014-08-15T08:17:52.333Z,18.24
2014-08-15T08:18:57.022Z,18.3
2014-08-15T08:20:01.696Z,18.26
2014-08-15T08:21:06.386Z,18.26
2014-08-15T08:22:11.075Z,18.12
2014-08-15T08:23:15.750Z,18.36
2014-08-15T08:24:20.439Z,18.4
2014-08-15T08:25:25.113Z,18.2
2014-08-15T08:26:29.803Z,18.44
2014-08-15T08:27:34.476Z,18.22
2014-08-15T08:28:39.165Z,18.3
2014-08-15T08:29:43.839Z,18.26
2014-08-15T08:30:48.827Z,18.19
2014-08-15T08:31:53.500Z,18.2
2014-08-15T08:32:58.190Z,18.13
2014-08-15T08:34:02.879Z,18.26
2014-08-15T08:35:07.866Z,18.18
2014-08-15T08:36:12.540Z,18.04
2014-08-15T08:37:17.527Z,18.04
2014-08-15T08:38:22.216Z,18.03
2014-08-15T08:39:26.905Z,17.98
2014-08-15T08:40:31.877Z,17.98
2014-08-15T08:41:36.566Z,17.93
2014-08-15T08:42:41.239Z,17.91
2014-08-15T08:43:45.930Z,17.96
2014-08-15T08:44:50.619Z,17.86
2014-08-15T08:45:55.606Z,17.9
2014-08-15T08:47:00.279Z,17.93
2014-08-15T08:48:04.969Z,18
2014-08-15T08:49:09.643Z,17.94
2014-08-15T08:50:14.629Z,18
2014-08-15T08:51:19.304Z,18.01
2014-08-15T08:52:23.993Z,17.76
2014-08-15T08:53:28.682Z,17.71
2014-08-15T08:54:33.654Z,17.67
2014-08-15T08:55:38.639Z,17.88
2014-08-15T08:56:43.611Z,17.81
2014-08-15T08:57:48.300Z,17.78
2014-08-15T08:58:52.990Z,17.86
2014-08-15T08:59:57.695Z,17.82
2014-08-15T09:01:02.666Z,17.99
2014-08-15T09:02:07.355Z,17.92
2014-08-15T09:03:12.029Z,17.94
2014-08-15T09:04:17.016Z,17.7
2014-08-15T09:05:21.705Z,17.66
2014-08-15T09:06:26.676Z,17.78
2014-08-15T09:07:31.365Z,17.66
2014-08-15T09:08:36.040Z,17.71
2014-08-15T09:09:40.730Z,17.82
2014-08-15T09:10:45.418Z,17.68
2014-08-15T09:11:50.092Z,17.84
2014-08-15T09:12:54.782Z,17.86
2014-08-15T09:13:59.455Z,17.7
2014-08-15T09:15:04.145Z,17.81
2014-08-15T09:16:08.819Z,17.75
2014-08-15T09:17:13.805Z,17.75
2014-08-15T09:18:18.479Z,17.94
2014-08-15T09:19:23.465Z,17.98
2014-08-15T09:20:28.139Z,17.86
2014-08-15T09:21:33.126Z,17.86
2014-08-15T09:22:37.831Z,17.96
2014-08-15T09:23:42.520Z,18.04
2014-08-15T09:24:47.196Z,18.1
2014-08-15T09:25:51.886Z,18.18
2014-08-15T09:26:56.559Z,18.1
2014-08-15T09:28:01.248Z,18.14
2014-08-15T09:29:06.219Z,18.16
2014-08-15T09:30:11.205Z,18.1
2014-08-15T09:31:15.879Z,18.32
2014-08-15T09:32:20.569Z,18.48
2014-08-15T09:33:25.242Z,18.5
2014-08-15T09:34:30.229Z,18.43
2014-08-15T09:35:34.903Z,18.47
2014-08-15T09:36:39.592Z,18.45
2014-08-15T09:37:44.266Z,18.44
2014-08-15T09:38:49.253Z,18.34
2014-08-15T09:39:53.942Z,18.27
2014-08-15T09:40:58.617Z,18.49
2014-08-15T09:42:03.603Z,18.82
2014-08-15T09:43:08.573Z,18.84
2014-08-15T09:44:13.262Z,19.01
2014-08-15T09:45:17.937Z,19.19
2014-08-15T09:46:22.628Z,19.2
2014-08-15T09:47:27.599Z,19.38
2014-08-15T09:48:32.287Z,19.32
2014-08-15T09:49:37.273Z,19.48
2014-08-15T09:50:41.963Z,19.49
2014-08-15T09:51:46.653Z,19.74
2014-08-15T09:52:51.343Z,19.94
2014-08-15T09:53:56.329Z,19.92
2014-08-15T09:55:01.003Z,19.82
2014-08-15T09:56:05.693Z,19.84
2014-08-15T09:57:10.663Z,19.71
2014-08-15T09:58:15.337Z,19.83
2014-08-15T09:59:20.027Z,20.02
2014-08-15T10:00:24.716Z,20.12
2014-08-15T10:01:29.390Z,20.02
2014-08-15T10:02:34.080Z,19.79
2014-08-15T10:03:38.754Z,19.82
2014-08-15T10:04:43.740Z,19.61
2014-08-15T10:05:48.726Z,19.68
2014-08-15T10:06:53.401Z,19.62
2014-08-15T10:07:58.387Z,19.59
2014-08-15T10:09:03.061Z,19.74
2014-08-15T10:10:08.048Z,19.78
2014-08-15T10:11:12.737Z,19.93
2014-08-15T10:12:17.708Z,20.04
2014-08-15T10:13:22.397Z,19.88
2014-08-15T10:14:27.070Z,19.62
2014-08-15T10:15:31.760Z,19.46
2014-08-15T10:16:36.450Z,19.55
2014-08-15T10:17:41.124Z,19.49
2014-08-15T10:18:46.408Z,19.46
2014-08-15T10:19:51.395Z,19.34
2014-08-15T10:20:56.070Z,19.47
2014-08-15T10:22:00.758Z,19.32
2014-08-15T10:23:05.432Z,19.53
2014-08-15T10:24:10.122Z,19.57
2014-08-15T10:25:14.811Z,19.42
2014-08-15T10:26:19.782Z,19.35
2014-08-15T10:27:24.456Z,19.33
2014-08-15T10:28:29.442Z,19.05
2014-08-15T10:29:34.132Z,19.15
2014-08-15T10:30:39.101Z,19.22
2014-08-15T10:31:44.089Z,19.25
2014-08-15T10:32:48.763Z,19.3
2014-08-15T10:33:53.437Z,19.4
2014-08-15T10:34:58.126Z,19.46
2014-08-15T10:36:02.800Z,19.7
2014-08-15T10:37:07.489Z,20.08
2014-08-15T10:38:12.180Z,20.18
2014-08-15T10:39:17.166Z,20.22
2014-08-15T10:40:21.857Z,20.26
2014-08-15T10:41:26.530Z,20.72
2014-08-15T10:42:31.220Z,20.84
2014-08-15T10:43:36.190Z,20.64
2014-08-15T10:44:41.176Z,20.65
2014-08-15T10:45:46.147Z,20.64
2014-08-15T10:46:50.837Z,20.58
2014-08-15T10:47:55.510Z,20.54
2014-08-15T10:49:00.200Z,20.51
2014-08-15T10:50:05.186Z,20.35
2014-08-15T10:51:09.876Z,20.39
2014-08-15T10:52:14.847Z,20.44
2014-08-15T10:53:19.833Z,20.38
2014-08-15T10:54:24.522Z,20.26
2014-08-15T10:55:29.230Z,20.33
2014-08-15T10:56:34.247Z,20.44
2014-08-15T10:57:38.951Z,20.18
2014-08-15T10:58:43.970Z,20.12
2014-08-15T10:59:48.659Z,19.82
2014-08-15T11:00:53.365Z,19.65
2014-08-15T11:01:58.382Z,19.5
2014-08-15T11:03:03.087Z,19.6
2014-08-15T11:04:08.074Z,19.38
2014-08-15T11:05:12.763Z,19.4
2014-08-15T11:06:17.735Z,19.36
2014-08-15T11:07:22.456Z,19.22
2014-08-15T11:08:27.442Z,19.06
2014-08-15T11:09:32.132Z,19.18
2014-08-15T11:10:36.852Z,18.82
2014-08-15T11:11:41.557Z,18.75
2014-08-15T11:12:46.263Z,18.8
2014-08-15T11:13:50.936Z,18.68
2014-08-15T11:14:54.970Z,18.58
2014-08-15T11:15:59.956Z,18.53
2014-08-15T11:17:04.974Z,18.33
2014-08-15T11:18:09.727Z,18.32
2014-08-15T11:19:14.431Z,18.11
2014-08-15T11:20:19.137Z,18.02
2014-08-15T11:21:23.857Z,17.9
2014-08-15T11:22:28.531Z,17.93
2014-08-15T11:23:33.251Z,17.94
2014-08-15T11:24:37.956Z,17.98
2014-08-15T11:25:42.944Z,17.96
2014-08-15T11:26:47.649Z,17.78
2014-08-15T11:27:52.354Z,17.76
2014-08-15T11:28:57.356Z,18.05
2014-08-15T11:30:02.077Z,18.09
2014-08-15T11:31:06.766Z,18
2014-08-15T11:32:11.784Z,17.98
2014-08-15T11:33:17.067Z,17.97
2014-08-15T11:34:21.742Z,17.84
2014-08-15T11:35:26.727Z,17.96
2014-08-15T11:36:31.401Z,18.12
2014-08-15T11:37:36.092Z,18.02
2014-08-15T11:38:40.780Z,18.19
2014-08-15T11:39:45.454Z,18.11
2014-08-15T11:40:50.145Z,18.05
2014-08-15T11:41:54.819Z,18.18
2014-08-15T11:42:59.508Z,18.5
2014-08-15T11:44:04.181Z,18.52
2014-08-15T11:45:08.870Z,18.66
2014-08-15T11:46:13.545Z,18.52
2014-08-15T11:47:18.235Z,18.62
2014-08-15T11:48:22.923Z,18.44
2014-08-15T11:49:27.597Z,18.35
2014-08-15T11:50:32.584Z,18.64
2014-08-15T11:51:37.257Z,18.89
2014-08-15T11:52:41.947Z,18.76
2014-08-15T11:53:46.621Z,18.83
2014-08-15T11:54:51.310Z,18.72
2014-08-15T11:55:56.000Z,19.04
2014-08-15T11:57:00.972Z,19.13
2014-08-15T11:58:05.661Z,19.01
2014-08-15T11:59:10.336Z,19.16
2014-08-15T12:00:15.025Z,19.05
2014-08-15T12:01:19.698Z,19.17
2014-08-15T12:02:24.685Z,19.24
2014-08-15T12:03:29.655Z,19.18
2014-08-15T12:04:34.346Z,19.14
2014-08-15T12:05:39.020Z,19.16
2014-08-15T12:06:43.709Z,18.8
2014-08-15T12:07:48.680Z,18.88
2014-08-15T12:08:53.667Z,19
2014-08-15T12:09:58.638Z,19.01
2014-08-15T12:11:03.655Z,19.19
2014-08-15T12:12:08.626Z,19.12
2014-08-15T12:13:13.316Z,19.12
2014-08-15T12:14:18.584Z,19.12
2014-08-15T12:15:23.867Z,18.98
2014-08-15T12:16:28.556Z,18.81
2014-08-15T12:17:33.527Z,18.87
2014-08-15T12:18:38.217Z,18.84
2014-08-15T12:19:42.906Z,18.62
2014-08-15T12:20:47.580Z,18.82
2014-08-15T12:21:52.270Z,18.84
2014-08-15T12:22:56.943Z,18.79
2014-08-15T12:24:01.617Z,18.83
2014-08-15T12:25:06.308Z,18.76
2014-08-15T12:26:11.310Z,18.72
2014-08-15T12:27:15.999Z,18.67
2014-08-15T12:28:20.673Z,18.53
2014-08-15T12:29:25.660Z,18.58
2014-08-15T12:30:30.630Z,18.83
2014-08-15T12:31:35.320Z,18.61
2014-08-15T12:32:39.994Z,18.59
2014-08-15T12:33:44.683Z,18.52
2014-08-15T12:34:49.654Z,18.6
2014-08-15T12:35:54.344Z,18.64
2014-08-15T12:36:59.315Z,18.6
2014-08-15T12:38:04.598Z,18.54
2014-08-15T12:39:09.287Z,18.32
2014-08-15T12:40:14.258Z,18.38
2014-08-15T12:41:19.244Z,18.62
2014-08-15T12:42:24.512Z,18.45
2014-08-15T12:43:29.201Z,18.39
2014-08-15T12:44:34.188Z,18.49
2014-08-15T12:45:38.471Z,18.53
2014-08-15T12:46:43.160Z,18.44
2014-08-15T12:47:48.147Z,18.53
2014-08-15T12:48:53.414Z,18.68
2014-08-15T12:49:58.104Z,18.53
2014-08-15T12:51:03.091Z,18.47
2014-08-15T12:52:07.765Z,18.53
2014-08-15T12:53:12.455Z,18.66
2014-08-15T12:54:17.425Z,18.71
2014-08-15T12:55:22.412Z,18.75
2014-08-15T12:56:27.086Z,18.54
2014-08-15T12:57:31.759Z,18.62
2014-08-15T12:58:36.495Z,18.68
2014-08-15T12:59:41.528Z,18.58
2014-08-15T13:00:46.249Z,18.8
2014-08-15T13:01:50.987Z,18.69
2014-08-15T13:02:56.021Z,18.82
2014-08-15T13:04:00.712Z,18.72
2014-08-15T13:05:05.417Z,18.56
2014-08-15T13:06:10.108Z,18.63
2014-08-15T13:07:14.811Z,18.44
2014-08-15T13:08:19.790Z,18.52
2014-08-15T13:09:24.782Z,18.56
2014-08-15T13:10:29.461Z,18.63
2014-08-15T13:11:34.141Z,18.69
2014-08-15T13:12:38.836Z,18.7
2014-08-15T13:13:43.527Z,18.72
2014-08-15T13:14:48.203Z,18.62
2014-08-15T13:15:53.192Z,18.48
2014-08-15T13:16:58.180Z,18.52
2014-08-15T13:18:03.153Z,18.53
2014-08-15T13:19:08.156Z,18.53
2014-08-15T13:20:12.846Z,18.67
2014-08-15T13:21:17.834Z,18.74
2014-08-15T13:22:23.118Z,18.68
2014-08-15T13:23:28.091Z,18.71
2014-08-15T13:24:32.780Z,18.88
2014-08-15T13:25:37.455Z,18.96
2014-08-15T13:26:42.144Z,18.62
2014-08-15T13:27:46.834Z,18.83
2014-08-15T13:28:51.509Z,18.62
2014-08-15T13:29:56.197Z,18.51
2014-08-15T13:31:01.169Z,18.79
2014-08-15T13:32:06.155Z,18.88
2014-08-15T13:33:10.828Z,18.76
2014-08-15T13:34:15.518Z,18.92
2014-08-15T13:35:20.193Z,19.08
2014-08-15T13:36:24.882Z,19.11
2014-08-15T13:37:29.556Z,18.96
2014-08-15T13:38:34.542Z,19.05
2014-08-15T13:39:39.811Z,19.1
2014-08-15T13:40:44.640Z,19.16
2014-08-15T13:41:49.330Z,19.27
2014-08-15T13:42:54.301Z,19.49
2014-08-15T13:43:58.991Z,19.66
2014-08-15T13:45:03.961Z,19.88
2014-08-15T13:46:08.666Z,19.92
2014-08-15T13:47:13.638Z,20.1
2014-08-15T13:48:18.624Z,20.08
2014-08-15T13:49:23.313Z,20.02
2014-08-15T13:50:28.300Z,20.15
2014-08-15T13:51:33.271Z,20.29
2014-08-15T13:52:38.257Z,20.42
2014-08-15T13:53:42.946Z,20.18
2014-08-15T13:54:47.933Z,20.23
2014-08-15T13:55:52.607Z,20.09
2014-08-15T13:56:57.296Z,20.03
2014-08-15T13:58:02.283Z,20.13